Monday, September 01, 2014
23:29 UTC
  |  Log In   |  Register Free
Airport Search:

Shenandoah Valley Regional Airport
(KSHD)

Shenandoah Valley Regional Airport Diagram
No Airport Diagram Available

FAA data valid effective July 24, 2014 until September 18, 2014 (unless otherwise noted).

 
 
 
 
 
 
 
 
 
 
 
 
 
 

Current Aviation Weather for Shenandoah Valley Regional Airport (KSHD)

The most recent METAR observation for KSHD was updated at: 2215 UTC
METAR Summary (Translated METAR)
KSHD
012215Z AUTO 24010G14KT 10SM SCT065 BKN090 32/17 A3003 RMK AO2 T03150172
KCHO
(22.2 nm SE from KSHD)
012153Z 20007KT 10SM CLR 32/21 A2997 RMK AO2 SLP139 T03170206
TAF Summary (Translated TAF)
KCHO
(22.2 nm SE from KSHD)
011724Z 0118/0218 23004KT P6SM SCT050 BKN090 FM012300 17004KT P6SM SCT090 FM020000 00000KT P6SM SCT090 FM020900 VRB03KT 3SM BR FEW250 FM021300 00000KT P6SM FEW090 FM021600 21006KT P6SM SCT090
  Airport Weather Conditions for KSHD

 Current Weather at SHD
87° F
Fair
Southwest winds at 8.1 mph
SHD NOAA Radar

Pressure: 30.02 in
Humidity: 47%
Wind: Southwest at 8.1 MPH (7 KT)
Dew Point: 64.4°F
Visibility: 10.00 mi


Airport Weather Forecast for KSHD

Translated METAR and TAF for KSHD
Translated METAR for KSHD (2323 UTC 01 September 2014)
found at http://aviationweather.gov/adds/metars/
 
METAR text: KSHD 012315Z AUTO 21006KT 10SM CLR 30/18 A3002 RMK AO2 T03000180
Conditions at: KSHD (STAUNTON/SHENAND, VA, US) observed 2315 UTC 01 September 2014
Temperature: 30.0°C (86°F)
Dewpoint: 18.0°C (64°F) [RH = 49%]
Pressure (altimeter): 30.02 inches Hg (1016.7 mb)
Winds: from the SSW (210 degrees) at 7 MPH (6 knots; 3.1 m/s)
Visibility: 10 or more miles (16+ km)
Ceiling: at least 12,000 feet AGL
Clouds: sky clear below 12,000 feet AGL
Weather: automated observation with no human augmentation;
there may or may not be significant weather present at this time
Translated TAF for KSHD

There is no translated TAF available for this airport

Find All Airport Services Find A Hotel Find A Rental Car Find A Golf Course Find A Restaurant $100 Hamburger



FBO's on the Field
FBO Company Facility Photos Services Transportation Aviation Fuel Prices: Prices include tax
Catering Weather Repair Courtesy Rental Type 100LL JetA JetA+ MOGAS 8087
 
Avnet Shenandoah Valley

This FBO has not yet been rated
FS:Avfuel
Last Updated: Aug-22
Login to update fuel prices
SS:
Contact Avnet Shenandoah ValleyMore FBO Information
 
Add another FBO Facility Photos Catering Weather Repair Courtesy Rental Type 100LL JetA JetA+ MOGAS 8087
Services Transportation Aviation Fuel Prices: Prices include tax


GlobalAir.com Airport Resource Center model-print
model-print
model-print
model-print